Time;durP1;ratioP1;P1;durP2;ratioP2;P2;SDS_P1;SDS_P2;PMS_P1;PMS_P2;Temp;Humidity;BMP_temperature;BMP_pressure;BME280_temperature;BME280_humidity;BME280_pressure;Samples;Min_cycle;Max_cycle;Signal;HPM_P1;HPM_P2
2022/09/29 00:00:07;;;;;;;8.80;3.80;;;;;;;5.77;74.93;97538.74;106131;1274;22819;-82
2022/09/29 00:02:57;;;;;;;9.40;4.20;;;;;;;5.77;75.11;97538.73;106347;1274;24403;-81
2022/09/29 00:05:55;;;;;;;;;;;;;;;;;;;;;
2022/09/29 00:09:01;;;;;;;8.60;3.10;;;;;;;5.76;74.84;97536.17;106376;1274;24285;-81
2022/09/29 00:12:23;;;;;;;;;;;;;;;;;;;;;
2022/09/29 00:14:53;;;;;;;8.80;3.50;;;;;;;5.74;75.12;97538.77;106276;1274;22550;-84
2022/09/29 00:17:22;;;;;;;9.80;3.10;;;;;;;5.72;74.90;97543.50;106058;1274;25232;-83
2022/09/29 00:19:51;;;;;;;9.00;4.00;;;;;;;5.69;75.29;97543.66;105922;1277;23486;-86
2022/09/29 00:22:19;;;;;;;10.30;4.30;;;;;;;5.66;75.06;97543.61;105947;1274;24284;-87
2022/09/29 00:24:54;;;;;;;10.20;4.80;;;;;;;5.62;74.91;97546.33;105737;1278;22730;-87
2022/09/29 00:27:21;;;;;;;9.20;4.10;;;;;;;5.61;75.03;97546.96;106156;1274;22564;-84
2022/09/29 00:29:56;;;;;;;10.80;3.40;;;;;;;5.63;75.26;97545.36;106085;1274;24283;-84
2022/09/29 00:32:37;;;;;;;7.70;3.10;;;;;;;5.65;75.44;97544.19;106323;1274;24253;-85
2022/09/29 00:35:15;;;;;;;9.50;3.50;;;;;;;5.66;75.17;97543.23;106071;1274;25380;-81
2022/09/29 00:37:48;;;;;;;10.90;3.60;;;;;;;5.66;75.46;97545.02;106092;1274;25538;-81
2022/09/29 00:40:20;;;;;;;9.80;3.90;;;;;;;5.67;75.28;97545.11;106007;1274;22581;-87
2022/09/29 00:42:49;;;;;;;9.10;3.70;;;;;;;5.66;75.22;97543.20;106351;1273;25238;-81
2022/09/29 00:45:23;;;;;;;10.50;3.60;;;;;;;5.64;75.24;97541.97;106057;1274;24217;-85
2022/09/29 00:48:16;;;;;;;9.80;3.90;;;;;;;5.61;75.16;97536.89;105982;1274;22563;-86
2022/09/29 00:50:48;;;;;;;10.70;3.80;;;;;;;5.56;75.14;97539.38;105959;1275;24356;-81
2022/09/29 00:53:20;;;;;;;10.20;4.20;;;;;;;5.52;75.02;97541.50;106085;1274;23182;-81
2022/09/29 00:55:57;;;;;;;9.20;3.80;;;;;;;5.50;75.15;97540.92;106363;1274;22637;-86
2022/09/29 00:59:03;;;;;;;10.30;3.60;;;;;;;5.51;75.15;97536.98;106045;1274;24299;-81
2022/09/29 01:01:33;;;;;;;9.00;3.20;;;;;;;5.52;75.47;97538.64;105659;1281;24293;-81
2022/09/29 01:04:17;;;;;;;6.80;2.70;;;;;;;5.54;75.33;97540.68;105671;1282;25467;-87
2022/09/29 01:06:57;;;;;;;7.80;3.20;;;;;;;5.54;75.31;97543.79;105627;1281;25521;-81
2022/09/29 01:09:32;;;;;;;7.50;2.90;;;;;;;5.55;75.37;97544.66;105716;1281;24255;-82
2022/09/29 01:12:06;;;;;;;10.10;3.50;;;;;;;5.56;75.30;97545.09;105696;1281;25513;-82
2022/09/29 01:14:42;;;;;;;10.10;3.40;;;;;;;5.56;75.46;97546.45;105696;1281;25258;-81
2022/09/29 01:17:13;;;;;;;7.60;3.60;;;;;;;5.55;75.31;97547.80;105677;1281;22587;-82
2022/09/29 01:20:23;;;;;;;10.40;3.40;;;;;;;5.53;75.40;97549.38;105582;1282;22563;-85
2022/09/29 01:23:29;;;;;;;9.40;3.50;;;;;;;5.52;75.49;97555.29;105674;1282;23251;-83
2022/09/29 01:26:34;;;;;;;7.20;3.10;;;;;;;5.53;75.43;97557.10;105584;1281;22676;-85
2022/09/29 01:29:52;;;;;;;8.70;3.00;;;;;;;5.54;75.46;97558.98;105664;1282;22569;-80
2022/09/29 01:32:53;;;;;;;9.60;2.80;;;;;;;5.54;75.64;97562.01;105664;1281;22700;-85
2022/09/29 01:35:56;;;;;;;7.30;2.60;;;;;;;5.52;75.65;97561.24;105639;1281;24283;-83
2022/09/29 01:39:06;;;;;;;8.10;2.90;;;;;;;5.50;75.66;97561.05;106015;1274;22557;-83
2022/09/29 01:42:01;;;;;;;7.70;2.60;;;;;;;5.50;75.94;97561.39;106256;1274;24313;-86
2022/09/29 01:44:34;;;;;;;8.70;2.70;;;;;;;5.52;75.78;97565.50;105900;1277;22537;-83
2022/09/29 01:47:26;;;;;;;7.10;2.70;;;;;;;5.56;75.94;97564.85;106353;1274;26472;-82
2022/09/29 01:50:17;;;;;;;7.00;2.40;;;;;;;5.59;75.69;97568.31;105980;1275;22535;-81
2022/09/29 01:52:48;;;;;;;9.30;2.50;;;;;;;5.57;75.69;97568.29;105974;1274;25648;-81
2022/09/29 01:55:26;;;;;;;6.50;2.60;;;;;;;5.57;75.67;97566.17;105893;1274;25598;-82
2022/09/29 01:58:14;;;;;;;7.60;2.80;;;;;;;5.57;75.82;97567.40;106056;1274;22541;-85
2022/09/29 02:00:50;;;;;;;6.30;2.80;;;;;;;5.57;75.84;97567.62;106083;1274;25282;-83
2022/09/29 02:03:42;;;;;;;6.40;2.70;;;;;;;5.56;75.99;97564.27;105998;1274;22599;-84
2022/09/29 02:06:26;;;;;;;6.80;2.60;;;;;;;5.57;75.81;97561.79;106037;1274;22563;-86
2022/09/29 02:09:01;;;;;;;6.80;2.60;;;;;;;5.59;75.85;97567.23;106004;1274;22553;-83
2022/09/29 02:11:31;;;;;;;7.10;2.50;;;;;;;5.62;76.02;97562.97;105960;1274;25349;-83
2022/09/29 02:14:06;;;;;;;6.50;2.70;;;;;;;5.64;75.90;97564.72;105981;1274;24283;-84
2022/09/29 02:16:53;;;;;;;6.70;2.60;;;;;;;5.66;75.58;97567.74;105882;1274;22699;-81
2022/09/29 02:19:36;;;;;;;8.20;2.40;;;;;;;5.67;75.95;97567.68;105990;1274;22550;-83
2022/09/29 02:22:28;;;;;;;6.00;2.30;;;;;;;5.64;75.84;97567.38;105771;1274;24134;-82
2022/09/29 02:25:15;;;;;;;6.70;2.70;;;;;;;5.59;75.93;97563.50;106268;1274;25484;-81
2022/09/29 02:27:49;;;;;;;6.80;2.90;;;;;;;5.56;75.75;97566.25;106346;1274;24092;-81
2022/09/29 02:30:29;;;;;;;6.90;2.60;;;;;;;5.55;75.91;97570.41;105959;1274;25531;-80
2022/09/29 02:32:59;;;;;;;5.90;2.20;;;;;;;5.54;75.92;97568.88;106006;1274;25350;-81
2022/09/29 02:36:08;;;;;;;7.00;2.80;;;;;;;5.55;75.97;97566.53;106020;1274;25762;-81
2022/09/29 02:39:15;;;;;;;8.80;3.30;;;;;;;5.57;76.06;97564.73;105718;1281;22564;-84
2022/09/29 02:42:08;;;;;;;7.60;2.60;;;;;;;5.60;75.99;97569.27;105678;1281;25532;-81
2022/09/29 02:45:41;;;;;;;9.00;3.20;;;;;;;5.63;75.97;97566.43;105707;1281;25252;-81
2022/09/29 02:48:55;;;;;;;10.70;3.20;;;;;;;5.61;75.98;97571.18;105696;1281;25524;-82
2022/09/29 02:51:57;;;;;;;9.10;3.70;;;;;;;5.57;75.86;97570.60;105436;1282;24240;-81
2022/09/29 02:54:53;;;;;;;9.90;4.10;;;;;;;5.52;75.89;97572.34;105633;1281;24278;-85
2022/09/29 02:57:40;;;;;;;8.90;4.20;;;;;;;5.46;75.79;97574.27;105605;1281;25635;-87
2022/09/29 03:00:55;;;;;;;8.40;3.60;;;;;;;5.38;75.35;97579.03;105661;1281;23165;-87
2022/09/29 03:03:47;;;;;;;7.70;3.50;;;;;;;5.31;75.70;97579.41;105616;1281;25210;-82
2022/09/29 03:06:31;;;;;;;;;;;;;;;;;;;;;
2022/09/29 03:09:05;;;;;;;9.50;3.20;;;;;;;5.20;75.77;97589.92;105569;1281;25242;-81
2022/09/29 03:11:35;;;;;;;7.50;3.20;;;;;;;5.16;75.55;97589.52;105701;1281;22874;-83
2022/09/29 03:14:28;;;;;;;8.10;3.20;;;;;;;5.12;75.74;97596.52;105711;1281;22570;-84
2022/09/29 03:17:29;;;;;;;8.60;3.60;;;;;;;5.05;75.70;97596.35;106173;1274;22571;-86
2022/09/29 03:20:36;;;;;;;9.70;3.20;;;;;;;4.99;75.49;97595.23;106308;1274;25326;-82
2022/09/29 03:23:22;;;;;;;11.00;4.00;;;;;;;4.74;75.40;97592.74;106070;1274;24269;-83
2022/09/29 03:26:47;;;;;;;8.30;4.10;;;;;;;4.56;75.69;97595.11;105956;1274;25411;-80
2022/09/29 03:29:52;;;;;;;8.70;3.20;;;;;;;4.45;75.63;97598.52;105979;1274;25867;-82
2022/09/29 03:33:30;;;;;;;7.60;3.10;;;;;;;4.40;76.07;97599.11;106214;1274;24358;-84
2022/09/29 03:36:00;;;;;;;8.20;3.30;;;;;;;4.47;76.27;97604.20;106167;1273;22767;-86
2022/09/29 03:38:30;;;;;;;9.80;3.50;;;;;;;4.52;76.18;97607.02;106044;1274;24381;-86
2022/09/29 03:41:45;;;;;;;;;;;;;;;;;;;;;
2022/09/29 03:44:25;;;;;;;10.60;3.50;;;;;;;4.56;76.30;97605.46;106139;1274;22580;-84
2022/09/29 03:47:10;;;;;;;9.90;3.70;;;;;;;4.50;75.97;97603.84;106039;1274;24454;-84
2022/09/29 03:49:59;;;;;;;9.30;3.80;;;;;;;4.34;75.81;97604.98;105946;1276;22540;-88
2022/09/29 03:52:34;;;;;;;9.50;3.70;;;;;;;4.24;75.86;97604.96;105982;1274;25502;-83
2022/09/29 03:55:33;;;;;;;;;;;;;;;;;;;;;
2022/09/29 03:58:10;;;;;;;8.90;3.60;;;;;;;4.27;76.09;97611.27;106069;1274;25221;-81
2022/09/29 04:01:02;;;;;;;10.30;3.30;;;;;;;4.33;76.27;97613.29;106018;1274;22537;-87
2022/09/29 04:03:33;;;;;;;9.40;3.60;;;;;;;4.39;76.46;97618.52;106039;1274;25233;-81
2022/09/29 04:06:00;;;;;;;8.30;3.50;;;;;;;4.42;76.23;97617.27;105942;1275;22558;-86
2022/09/29 04:08:37;;;;;;;7.60;3.20;;;;;;;4.41;76.18;97616.45;105840;1275;22535;-86
2022/09/29 04:11:10;;;;;;;9.20;3.70;;;;;;;4.38;76.28;97612.98;106058;1274;24236;-82
2022/09/29 04:14:14;;;;;;;9.10;4.00;;;;;;;4.36;76.26;97614.31;106034;1274;25537;-81
2022/09/29 04:16:49;;;;;;;14.90;4.10;;;;;;;4.22;75.81;97614.09;105990;1274;25379;-82
2022/09/29 04:19:21;;;;;;;20.00;4.80;;;;;;;4.15;76.10;97621.77;105921;1277;25560;-86
2022/09/29 04:21:51;;;;;;;17.60;5.20;;;;;;;4.17;76.20;97622.20;105979;1275;22558;-86
2022/09/29 04:24:30;;;;;;;14.60;4.60;;;;;;;4.21;76.36;97622.56;106020;1274;24374;-81
2022/09/29 04:27:02;;;;;;;14.60;5.30;;;;;;;4.28;76.38;97625.27;105936;1274;22605;-86
2022/09/29 04:29:31;;;;;;;11.40;4.90;;;;;;;4.28;76.44;97626.33;106234;1274;25188;-83
2022/09/29 04:32:04;;;;;;;13.00;5.30;;;;;;;4.19;76.09;97628.21;105956;1274;25238;-83
2022/09/29 04:34:40;;;;;;;13.00;4.70;;;;;;;4.08;76.13;97626.84;105915;1276;25250;-87
2022/09/29 04:37:14;;;;;;;16.50;4.90;;;;;;;3.98;76.12;97631.79;105977;1274;22522;-84
2022/09/29 04:40:06;;;;;;;12.70;4.90;;;;;;;3.92;76.49;97631.25;105955;1274;22702;-81
2022/09/29 04:42:44;;;;;;;12.90;4.90;;;;;;;3.94;76.82;97635.36;106314;1274;22684;-87
2022/09/29 04:45:37;;;;;;;11.10;4.40;;;;;;;3.99;76.72;97630.95;106016;1274;22537;-87
2022/09/29 04:48:07;;;;;;;8.50;3.70;;;;;;;4.07;76.88;97632.89;106338;1274;23853;-83
2022/09/29 04:50:34;;;;;;;11.70;3.90;;;;;;;4.08;76.60;97628.77;106002;1274;23304;-83
2022/09/29 04:53:09;;;;;;;13.30;4.00;;;;;;;4.08;76.80;97628.96;106028;1274;22795;-82
2022/09/29 04:55:40;;;;;;;14.40;4.20;;;;;;;4.11;77.04;97629.80;106100;1274;24269;-84
2022/09/29 04:58:07;;;;;;;10.20;4.00;;;;;;;4.16;76.92;97633.88;105967;1274;24543;-83
2022/09/29 05:00:38;;;;;;;10.70;4.40;;;;;;;4.24;76.92;97634.55;105975;1274;25591;-81
2022/09/29 05:03:06;;;;;;;9.40;4.20;;;;;;;4.35;76.91;97642.04;106000;1274;25235;-82
2022/09/29 05:05:44;;;;;;;;;;;;;;;;;;;;;
2022/09/29 05:08:13;;;;;;;11.00;4.90;;;;;;;4.54;76.81;97648.84;105944;1274;25232;-83
2022/09/29 05:10:46;;;;;;;14.00;5.30;;;;;;;4.58;76.92;97650.51;105998;1274;25245;-81
2022/09/29 05:13:16;;;;;;;15.20;6.30;;;;;;;4.65;76.90;97650.17;105945;1275;22545;-83
2022/09/29 05:15:53;;;;;;;19.40;7.60;;;;;;;4.70;76.58;97645.78;106423;1274;25290;-81
2022/09/29 05:18:26;;;;;;;15.00;6.60;;;;;;;4.74;76.63;97643.05;105992;1273;25347;-80
2022/09/29 05:20:55;;;;;;;16.40;6.90;;;;;;;4.75;76.78;97641.35;106090;1274;24360;-82
2022/09/29 05:23:23;;;;;;;17.60;7.10;;;;;;;4.77;76.61;97639.66;106132;1274;24304;-81
2022/09/29 05:26:10;;;;;;;19.00;7.30;;;;;;;4.81;76.40;97649.77;106210;1274;25361;-81
2022/09/29 05:28:57;;;;;;;12.40;6.30;;;;;;;4.86;76.50;97652.72;106407;1272;22559;-85
2022/09/29 05:31:27;;;;;;;13.40;6.20;;;;;;;4.96;76.52;97652.05;106047;1274;22033;-80
2022/09/29 05:34:05;;;;;;;14.10;7.00;;;;;;;5.05;76.63;97653.98;106048;1274;24298;-82
2022/09/29 05:36:32;;;;;;;16.50;6.60;;;;;;;5.18;76.46;97653.29;106062;1274;25238;-82
2022/09/29 05:39:05;;;;;;;14.20;6.60;;;;;;;5.28;76.93;97651.29;106083;1274;24326;-88
2022/09/29 05:41:42;;;;;;;15.20;6.40;;;;;;;5.39;77.17;97653.16;106315;1274;22535;-82
2022/09/29 05:44:09;;;;;;;12.70;6.30;;;;;;;5.46;76.98;97655.30;106364;1274;25384;-81
2022/09/29 05:46:49;;;;;;;;;;;;;;;;;;;;;
2022/09/29 05:49:30;;;;;;;14.10;7.00;;;;;;;5.62;76.97;97653.90;106154;1274;22548;-85
2022/09/29 05:52:02;;;;;;;15.10;5.70;;;;;;;5.83;77.14;97653.79;106030;1274;24215;-85
2022/09/29 05:54:49;;;;;;;13.60;5.20;;;;;;;6.00;76.85;97650.20;106123;1274;22548;-85
2022/09/29 05:57:46;;;;;;;14.20;5.50;;;;;;;6.31;77.08;97653.83;106096;1274;23937;-81
2022/09/29 06:00:24;;;;;;;14.70;6.00;;;;;;;6.65;77.18;97649.71;106472;1274;22547;-81
2022/09/29 06:02:54;;;;;;;16.60;7.00;;;;;;;6.89;76.92;97651.74;106342;1274;22743;-83
2022/09/29 06:05:38;;;;;;;15.80;7.00;;;;;;;7.13;76.93;97647.88;106060;1274;25441;-81
2022/09/29 06:08:06;;;;;;;14.90;6.30;;;;;;;7.39;76.95;97649.11;106096;1274;22713;-83
2022/09/29 06:10:35;;;;;;;12.40;4.90;;;;;;;7.65;77.00;97650.67;105998;1274;23160;-81
2022/09/29 06:13:02;;;;;;;10.50;4.80;;;;;;;7.82;76.47;97651.38;106048;1274;25202;-81
2022/09/29 06:15:41;;;;;;;10.40;3.80;;;;;;;7.93;76.27;97656.34;106060;1274;22553;-86
2022/09/29 06:18:14;;;;;;;8.80;3.70;;;;;;;8.09;76.56;97657.63;105930;1274;22791;-81
2022/09/29 06:20:48;;;;;;;10.40;3.50;;;;;;;8.16;76.10;97660.25;106019;1274;22531;-84
2022/09/29 06:23:29;;;;;;;8.50;3.70;;;;;;;8.21;76.18;97664.80;106352;1274;24851;-81
2022/09/29 06:26:10;;;;;;;9.60;3.90;;;;;;;8.35;76.39;97664.88;105997;1274;22544;-83
2022/09/29 06:28:40;;;;;;;11.00;3.50;;;;;;;8.59;76.43;97669.36;106050;1274;25437;-81
2022/09/29 06:31:16;;;;;;;12.60;4.20;;;;;;;8.79;76.33;97671.91;106283;1274;22547;-84
2022/09/29 06:33:47;;;;;;;11.90;4.10;;;;;;;8.93;76.22;97670.88;106082;1274;22553;-82
2022/09/29 06:39:40;;;;;;;14.20;4.40;;;;;;;9.08;76.18;97673.27;106066;1274;22528;-82
2022/09/29 06:42:12;;;;;;;8.70;3.80;;;;;;;9.14;76.31;97674.00;106351;1274;25296;-82
2022/09/29 06:44:49;;;;;;;12.30;3.70;;;;;;;9.21;76.26;97676.86;106093;1274;23062;-82
2022/09/29 06:47:39;;;;;;;14.90;4.30;;;;;;;9.24;76.29;97674.39;106328;1274;25282;-82
2022/09/29 06:50:16;;;;;;;11.10;3.80;;;;;;;9.32;76.37;97670.91;106363;1274;25409;-82
2022/09/29 06:52:47;;;;;;;18.70;4.90;;;;;;;9.47;76.48;97669.46;106109;1274;25548;-81
2022/09/29 06:55:16;;;;;;;10.90;4.20;;;;;;;9.65;76.34;97670.84;106060;1274;22574;-82
2022/09/29 06:57:46;;;;;;;9.90;4.70;;;;;;;9.78;76.35;97676.59;106082;1274;25289;-82
2022/09/29 07:00:14;;;;;;;12.30;5.00;;;;;;;9.86;76.28;97680.45;106114;1274;22533;-85
2022/09/29 07:02:55;;;;;;;11.20;5.10;;;;;;;9.90;76.04;97683.51;106040;1274;25293;-82
2022/09/29 07:05:42;;;;;;;;;;;;;;;;;;;;;
2022/09/29 07:08:56;;;;;;;15.00;6.20;;;;;;;10.05;76.16;97684.25;106070;1274;22677;-84
2022/09/29 07:11:40;;;;;;;;;;;;;;;;;;;;;
2022/09/29 07:14:37;;;;;;;11.70;5.70;;;;;;;10.31;75.93;97687.71;106138;1274;22541;-85
2022/09/29 07:17:08;;;;;;;10.90;5.50;;;;;;;10.44;76.16;97687.42;106028;1274;24326;-83
2022/09/29 07:19:41;;;;;;;13.60;5.50;;;;;;;10.59;76.10;97689.94;105552;1274;564024;-83
2022/09/29 07:22:17;;;;;;;14.70;6.50;;;;;;;10.73;76.10;97687.87;106114;1274;25233;-83
2022/09/29 07:24:49;;;;;;;14.70;6.00;;;;;;;10.87;75.64;97688.13;106319;1274;23304;-82
2022/09/29 07:27:22;;;;;;;13.00;6.10;;;;;;;11.00;75.59;97689.38;106063;1274;22576;-82
2022/09/29 07:29:53;;;;;;;15.50;7.00;;;;;;;11.16;75.66;97691.65;106159;1274;24208;-83
2022/09/29 07:32:25;;;;;;;15.00;6.90;;;;;;;11.31;75.81;97694.61;106149;1274;24898;-85
2022/09/29 07:35:08;;;;;;;16.00;6.80;;;;;;;11.40;75.56;97693.78;106047;1274;22541;-85
2022/09/29 07:37:59;;;;;;;16.90;7.20;;;;;;;11.52;75.78;97692.21;106155;1274;22593;-84
2022/09/29 07:41:38;;;;;;;14.90;5.90;;;;;;;11.67;75.73;97690.18;106060;1274;24221;-86
2022/09/29 07:45:06;;;;;;;;;;;;;;;;;;;;;
2022/09/29 07:48:31;;;;;;;14.50;6.10;;;;;;;11.81;75.01;97690.84;106013;1273;25238;-82
2022/09/29 07:51:36;;;;;;;13.30;5.30;;;;;;;11.86;75.15;97688.91;105777;1280;22670;-85
2022/09/29 07:54:34;;;;;;;15.90;5.90;;;;;;;11.95;75.32;97685.48;105592;1282;22536;-82
2022/09/29 07:58:09;;;;;;;13.70;5.90;;;;;;;12.08;75.27;97687.25;105710;1281;25248;-83
2022/09/29 08:01:25;;;;;;;9.30;4.40;;;;;;;12.21;75.03;97691.16;105139;1285;22570;-86
2022/09/29 08:04:08;;;;;;;12.80;5.70;;;;;;;12.24;74.70;97692.41;105118;1285;24320;-81
2022/09/29 08:06:57;;;;;;;;;;;;;;;;;;;;;
2022/09/29 08:09:24;;;;;;;12.60;5.40;;;;;;;12.42;75.03;97699.02;104937;1285;24425;-84
2022/09/29 08:12:04;;;;;;;9.90;4.20;;;;;;;12.57;75.05;97699.57;104948;1286;22596;-82
2022/09/29 08:14:45;;;;;;;9.20;3.90;;;;;;;12.75;75.02;97702.41;105148;1286;23130;-85
2022/09/29 08:17:31;;;;;;;;;;;;;;;;;;;;;
2022/09/29 08:20:48;;;;;;;18.60;8.40;;;;;;;12.96;74.54;97702.17;104726;1286;25264;-85
2022/09/29 08:23:28;;;;;;;7.30;3.30;;;;;;;13.06;74.80;97706.52;105165;1285;22633;-84
2022/09/29 08:26:22;;;;;;;8.20;3.50;;;;;;;13.21;74.82;97708.73;105110;1286;24213;-83
2022/09/29 08:29:14;;;;;;;8.60;3.70;;;;;;;13.32;74.74;97713.55;105602;1281;25342;-83
2022/09/29 08:32:05;;;;;;;11.20;4.60;;;;;;;13.43;74.62;97712.46;105724;1282;22543;-83
2022/09/29 08:35:05;;;;;;;;;;;;;;;;;;;;;
2022/09/29 08:37:33;;;;;;;9.60;3.40;;;;;;;13.62;74.36;97719.81;105931;1274;22561;-83
2022/09/29 08:40:17;;;;;;;11.70;4.70;;;;;;;13.61;74.17;97724.17;106089;1274;24237;-87
2022/09/29 08:43:30;;;;;;;8.40;3.80;;;;;;;13.67;74.44;97723.17;106379;1274;22559;-86
2022/09/29 08:47:16;;;;;;;16.00;5.70;;;;;;;13.76;74.09;97717.95;106365;1274;22610;-84
2022/09/29 08:50:01;;;;;;;16.50;6.60;;;;;;;13.82;74.26;97720.52;105605;1282;24355;-83
2022/09/29 08:52:34;;;;;;;16.80;7.00;;;;;;;13.89;74.11;97721.27;105732;1279;25243;-83
2022/09/29 08:55:25;;;;;;;10.10;4.10;;;;;;;13.97;74.19;97719.41;105727;1279;22871;-83
2022/09/29 08:58:10;;;;;;;7.30;3.30;;;;;;;14.08;74.16;97721.08;105627;1279;22909;-84
2022/09/29 09:01:22;;;;;;;8.10;3.50;;;;;;;14.21;74.15;97725.13;105625;1280;22702;-86
2022/09/29 09:04:07;;;;;;;8.70;3.90;;;;;;;14.38;73.96;97725.71;105715;1280;22544;-82
2022/09/29 09:06:57;;;;;;;6.70;2.50;;;;;;;14.56;74.02;97724.41;105749;1280;22722;-84
2022/09/29 09:09:33;;;;;;;6.80;2.40;;;;;;;14.80;73.64;97725.06;105685;1282;25376;-83
2022/09/29 09:12:38;;;;;;;5.80;2.20;;;;;;;15.01;73.53;97719.69;105740;1281;22551;-83
2022/09/29 09:15:38;;;;;;;6.20;2.50;;;;;;;14.94;72.34;97717.87;105705;1283;22601;-85
2022/09/29 09:18:53;;;;;;;4.60;1.70;;;;;;;14.95;73.13;97719.95;105752;1280;25391;-83
2022/09/29 09:22:30;;;;;;;;;;;;;;;;;;;;;
2022/09/29 09:25:10;;;;;;;6.10;1.90;;;;;;;15.38;73.12;97724.55;105202;1286;25333;-85
2022/09/29 09:28:03;;;;;;;4.60;1.90;;;;;;;15.57;73.00;97730.75;105509;1280;22572;-85
2022/09/29 09:30:47;;;;;;;7.00;1.90;;;;;;;15.40;71.64;97729.27;105695;1280;25313;-83
2022/09/29 09:33:24;;;;;;;6.00;2.30;;;;;;;15.07;72.01;97731.81;105517;1281;24245;-88
2022/09/29 09:35:57;;;;;;;18.30;7.90;;;;;;;14.80;72.10;97736.41;105635;1282;22635;-84
2022/09/29 09:38:33;;;;;;;11.30;4.20;;;;;;;14.56;72.32;97740.95;105685;1280;22073;-87
2022/09/29 09:41:18;;;;;;;9.00;3.90;;;;;;;14.41;72.34;97745.13;105799;1280;24447;-85
2022/09/29 09:43:52;;;;;;;7.20;2.50;;;;;;;14.31;72.57;97751.55;105656;1280;22561;-83
2022/09/29 09:46:48;;;;;;;6.30;2.20;;;;;;;14.52;72.70;97746.80;105631;1282;22565;-88
2022/09/29 09:49:51;;;;;;;6.40;2.60;;;;;;;14.84;72.57;97746.50;105714;1280;24217;-85
2022/09/29 09:52:27;;;;;;;8.80;2.40;;;;;;;15.07;72.41;97747.14;105840;1280;22844;-82
2022/09/29 09:55:15;;;;;;;5.00;2.00;;;;;;;15.32;72.12;97745.60;105748;1280;22598;-84
2022/09/29 09:57:54;;;;;;;5.20;2.00;;;;;;;15.38;72.15;97739.71;105610;1280;25349;-83
2022/09/29 10:00:22;;;;;;;5.90;2.00;;;;;;;15.52;71.64;97742.71;106020;1274;22531;-89
2022/09/29 10:02:53;;;;;;;6.70;2.20;;;;;;;15.48;71.72;97743.10;106114;1274;22596;-83
2022/09/29 10:05:33;;;;;;;7.30;2.20;;;;;;;15.76;71.79;97741.73;106098;1274;24462;-85
2022/09/29 10:08:03;;;;;;;9.10;3.70;;;;;;;16.09;71.58;97739.55;105996;1274;25538;-83
2022/09/29 10:10:38;;;;;;;7.50;2.30;;;;;;;16.37;71.60;97736.89;106052;1274;25268;-82
2022/09/29 10:13:14;;;;;;;5.60;1.70;;;;;;;16.67;71.31;97732.27;106121;1274;25293;-84
2022/09/29 10:15:58;;;;;;;4.20;1.70;;;;;;;16.72;70.89;97736.47;106078;1274;22564;-84
2022/09/29 10:18:52;;;;;;;5.40;2.00;;;;;;;16.58;70.64;97740.26;106083;1274;25206;-83
2022/09/29 10:21:46;;;;;;;4.80;1.90;;;;;;;16.55;70.93;97740.95;106114;1274;25347;-84
2022/09/29 10:24:28;;;;;;;7.70;1.50;;;;;;;16.51;70.75;97745.73;106087;1274;25029;-88
2022/09/29 10:26:59;;;;;;;5.60;1.70;;;;;;;16.73;70.98;97745.92;106052;1276;22554;-85
2022/09/29 10:29:43;;;;;;;4.90;1.70;;;;;;;16.94;70.92;97743.56;106093;1274;22626;-84
2022/09/29 10:32:37;;;;;;;4.30;1.70;;;;;;;17.08;70.79;97745.69;106378;1274;22717;-85
2022/09/29 10:35:17;;;;;;;6.20;2.30;;;;;;;17.41;70.54;97745.89;105982;1274;22551;-85
2022/09/29 10:38:06;;;;;;;5.60;2.30;;;;;;;17.45;70.08;97746.41;106085;1274;25490;-85
2022/09/29 10:40:57;;;;;;;4.70;1.80;;;;;;;17.43;70.13;97746.70;106105;1273;25229;-84
2022/09/29 10:43:39;;;;;;;5.10;1.90;;;;;;;17.67;69.84;97750.41;105916;1274;24415;-87
2022/09/29 10:46:26;;;;;;;8.20;3.40;;;;;;;17.77;69.62;97748.09;106069;1274;25245;-85
2022/09/29 10:49:23;;;;;;;9.50;2.30;;;;;;;17.94;69.77;97749.33;106131;1274;22553;-84
2022/09/29 10:52:06;;;;;;;6.90;2.60;;;;;;;18.13;69.51;97744.58;106026;1276;24137;-84
2022/09/29 10:54:52;;;;;;;5.90;2.30;;;;;;;18.27;68.96;97743.45;106017;1274;23922;-86
2022/09/29 10:57:29;;;;;;;6.70;2.30;;;;;;;18.28;68.81;97745.98;106037;1274;25214;-85
2022/09/29 11:00:00;;;;;;;6.90;2.30;;;;;;;18.12;68.67;97746.02;105939;1274;22549;-84
2022/09/29 11:03:03;;;;;;;6.30;1.90;;;;;;;18.00;68.41;97749.37;106307;1274;26663;-84
2022/09/29 11:05:37;;;;;;;4.30;1.70;;;;;;;18.16;69.13;97744.98;106008;1276;25402;-85
2022/09/29 11:08:20;;;;;;;4.90;1.90;;;;;;;18.50;69.32;97743.76;106080;1274;25292;-86
2022/09/29 11:11:25;;;;;;;5.90;1.70;;;;;;;18.78;68.98;97741.52;105957;1274;22616;-87
2022/09/29 11:14:12;;;;;;;5.10;2.10;;;;;;;18.77;68.08;97742.33;106028;1277;22707;-83
2022/09/29 11:17:19;;;;;;;5.30;2.10;;;;;;;18.84;68.46;97752.20;106080;1274;25333;-85
2022/09/29 11:20:15;;;;;;;6.50;2.70;;;;;;;18.90;68.06;97759.89;105935;1277;22675;-86
2022/09/29 11:23:30;;;;;;;6.00;2.60;;;;;;;18.58;67.63;97767.47;106392;1274;24406;-87
2022/09/29 11:26:20;;;;;;;5.10;2.10;;;;;;;18.17;67.67;97774.75;106001;1274;22558;-84
2022/09/29 11:29:31;;;;;;;;;;;;;;;;;;;;;
2022/09/29 11:33:13;;;;;;;5.90;2.30;;;;;;;17.62;68.13;97772.51;106067;1274;22655;-84
2022/09/29 11:36:28;;;;;;;6.50;2.40;;;;;;;17.40;67.95;97771.50;105687;1282;24295;-86
2022/09/29 11:40:00;;;;;;;;;;;;;;;;;;;;;
2022/09/29 11:43:22;;;;;;;;;;;;;;;;;;;;;
2022/09/29 11:46:30;;;;;;;6.30;2.60;;;;;;;17.00;67.84;97767.88;105650;1282;22575;-87
2022/09/29 11:49:43;;;;;;;5.90;2.20;;;;;;;17.21;67.52;97764.52;105520;1283;22540;-90
2022/09/29 11:53:51;;;;;;;6.00;2.20;;;;;;;17.46;67.65;97763.73;105700;1282;24281;-85
2022/09/29 11:57:03;;;;;;;5.70;2.30;;;;;;;17.61;67.49;97760.88;105349;1282;25425;-83
2022/09/29 12:00:17;;;;;;;6.80;2.20;;;;;;;17.43;67.16;97763.37;104794;1288;22649;-86
2022/09/29 12:03:56;;;;;;;7.20;2.00;;;;;;;17.30;67.14;97761.88;105068;1287;24263;-83
2022/09/29 12:06:47;;;;;;;6.10;2.30;;;;;;;17.42;66.95;97757.54;105087;1287;24123;-85
2022/09/29 12:09:25;;;;;;;5.60;1.80;;;;;;;17.52;66.72;97757.14;105093;1285;25763;-83
2022/09/29 12:12:44;;;;;;;;;;;;;;;;;;;;;
2022/09/29 12:16:02;;;;;;;6.80;2.20;;;;;;;17.07;66.47;97757.29;105669;1282;25332;-83
2022/09/29 12:19:16;;;;;;;5.70;2.30;;;;;;;16.95;65.75;97755.93;105532;1282;25256;-83
2022/09/29 12:22:13;;;;;;;5.90;2.10;;;;;;;17.05;65.92;97753.27;105571;1282;24268;-84
2022/09/29 12:24:50;;;;;;;5.20;2.10;;;;;;;17.34;66.10;97749.90;105569;1282;25544;-84
2022/09/29 12:27:28;;;;;;;6.50;2.20;;;;;;;17.33;66.00;97753.85;105452;1282;22794;-84
2022/09/29 12:30:05;;;;;;;6.50;2.30;;;;;;;17.34;65.92;97757.86;105464;1282;22558;-86
2022/09/29 12:32:40;;;;;;;9.70;2.40;;;;;;;17.22;65.79;97763.74;105206;1282;24349;-86
2022/09/29 12:35:36;;;;;;;9.00;2.50;;;;;;;17.01;65.85;97766.73;105840;1274;24299;-83
2022/09/29 12:38:55;;;;;;;4.90;1.60;;;;;;;16.75;65.63;97763.67;106064;1277;22620;-85
2022/09/29 12:41:32;;;;;;;5.60;2.00;;;;;;;16.42;65.56;97765.88;106364;1274;23507;-84
2022/09/29 12:44:26;;;;;;;6.50;2.30;;;;;;;16.17;65.38;97769.46;106377;1274;22595;-85
2022/09/29 12:47:22;;;;;;;6.40;2.50;;;;;;;15.88;65.43;97772.67;106344;1274;25232;-83
2022/09/29 12:50:02;;;;;;;7.90;2.90;;;;;;;15.59;65.45;97775.94;106288;1274;25285;-83
2022/09/29 12:52:40;;;;;;;7.30;3.00;;;;;;;15.35;65.52;97776.13;106069;1274;24247;-84
2022/09/29 12:55:19;;;;;;;9.60;3.60;;;;;;;15.20;65.78;97781.81;106355;1274;22534;-83
2022/09/29 12:57:50;;;;;;;7.90;3.10;;;;;;;15.04;65.66;97786.30;106140;1274;22531;-87
2022/09/29 13:00:22;;;;;;;7.10;2.90;;;;;;;14.91;65.70;97793.96;106040;1277;25553;-84
2022/09/29 13:03:30;;;;;;;6.20;2.50;;;;;;;14.83;65.94;97796.26;106085;1274;25447;-81
2022/09/29 13:06:23;;;;;;;6.40;2.50;;;;;;;14.76;65.89;97802.90;106391;1274;25388;-83
2022/09/29 13:08:58;;;;;;;7.30;2.80;;;;;;;14.68;65.77;97802.80;106314;1274;22624;-83
2022/09/29 13:12:06;;;;;;;7.80;2.60;;;;;;;14.56;65.47;97803.70;106074;1274;25330;-81
2022/09/29 13:15:03;;;;;;;6.50;2.40;;;;;;;14.44;65.31;97796.58;106075;1274;22569;-84
2022/09/29 13:17:51;;;;;;;7.40;2.40;;;;;;;14.31;65.40;97797.98;106009;1274;22652;-85
2022/09/29 13:20:24;;;;;;;9.70;2.40;;;;;;;14.12;65.00;97800.52;106184;1274;26554;-83
2022/09/29 13:23:46;;;;;;;9.80;2.20;;;;;;;13.98;65.11;97808.33;106504;1274;22855;-82
2022/09/29 13:26:33;;;;;;;6.40;2.10;;;;;;;13.72;64.71;97805.34;105739;1280;25232;-83